Petersville, Kentucky
Current Conditions -  °F | °C
As of 5:15 AM on Saturday 20 Dec 2014 (Local Time) from KFGX Reporting Station
Overcast Overcast  
Wind Chill: 27°   Ceiling: 7000
Heat Index: 27°   Visibility: 7mi
Dew Point: 24°   Wind: 3mph
Humidity: 90%   Direction: 60°ENE
Pressure: 30.26"   Gusts: NA
Location:  38.4929°N, 83.3898°W
Report Text: KFGX 201015Z AUTO 06003KT 7SM SCT025 BKN070 OVC080 M03/M04 A3026 RMK AO2 T10301045
Loading
Personal Weather Stations






























Interactive Weather Map New forecast layout! Learn more

10-Day Weather Forecast

Advertisements
Track Severe Weather on mobile